Time;durP1;ratioP1;P1;durP2;ratioP2;P2;SDS_P1;SDS_P2;PMS_P1;PMS_P2;Temp;Humidity;BMP_temperature;BMP_pressure;BME280_temperature;BME280_humidity;BME280_pressure;Samples;Min_cycle;Max_cycle;Signal;HPM_P1;HPM_P2
2023/08/27 00:00:36;;;;;;;3.60;3.30;;;24.20;85.00;;;;;;4989083;28;20295;-72
2023/08/27 00:03:05;;;;;;;3.70;3.37;;;24.20;85.00;;;;;;4987624;28;20831;-73
2023/08/27 00:05:41;;;;;;;3.40;3.10;;;24.10;84.90;;;;;;4989947;28;20575;-77
2023/08/27 00:08:13;;;;;;;3.80;3.00;;;24.10;85.80;;;;;;4971075;28;20564;-71
2023/08/27 00:10:41;;;;;;;3.33;3.03;;;24.10;85.00;;;;;;4999615;28;20474;-72
2023/08/27 00:13:07;;;;;;;3.53;3.23;;;24.10;85.10;;;;;;4989750;28;20456;-71
2023/08/27 00:15:35;;;;;;;4.03;3.70;;;24.10;85.00;;;;;;5006003;28;20455;-71
2023/08/27 00:18:04;;;;;;;4.93;3.30;;;24.10;85.90;;;;;;5006000;28;20458;-72
2023/08/27 00:20:34;;;;;;;2.90;2.70;;;24.10;85.10;;;;;;4989175;28;20447;-71
2023/08/27 00:23:00;;;;;;;3.70;3.40;;;24.10;85.10;;;;;;5005846;28;20404;-74
2023/08/27 00:25:29;;;;;;;4.40;3.40;;;24.10;85.20;;;;;;5005726;28;20480;-72
2023/08/27 00:27:55;;;;;;;2.93;2.73;;;24.00;85.10;;;;;;5007385;28;21050;-72
2023/08/27 00:30:21;;;;;;;3.77;3.27;;;24.00;85.10;;;;;;4989448;28;20456;-71
2023/08/27 00:32:47;;;;;;;3.53;3.00;;;24.00;85.00;;;;;;4989827;28;20404;-71
2023/08/27 00:35:13;;;;;;;3.53;2.80;;;24.00;85.10;;;;;;5006508;28;20464;-73
2023/08/27 00:37:44;;;;;;;6.57;3.20;;;24.00;85.10;;;;;;5006545;28;20456;-76
2023/08/27 00:40:10;;;;;;;3.10;2.80;;;24.00;85.10;;;;;;4990238;28;21078;-72
2023/08/27 00:42:37;;;;;;;3.57;3.27;;;23.90;85.00;;;;;;4990007;28;20427;-73
2023/08/27 00:45:03;;;;;;;3.23;3.00;;;23.90;84.90;;;;;;5005660;28;20505;-69
2023/08/27 00:47:30;;;;;;;3.20;2.90;;;23.90;84.90;;;;;;5003384;28;20429;-70
2023/08/27 00:49:57;;;;;;;4.70;3.90;;;23.90;84.90;;;;;;4975330;28;20460;-70
2023/08/27 00:52:24;;;;;;;4.10;3.10;;;23.90;85.00;;;;;;4992423;28;20425;-70
2023/08/27 00:54:51;;;;;;;3.10;2.80;;;23.90;85.00;;;;;;5001102;28;20557;-70
2023/08/27 00:57:25;;;;;;;3.40;2.83;;;23.90;85.00;;;;;;4971303;28;20461;-70
2023/08/27 00:59:57;;;;;;;3.20;2.73;;;23.90;84.90;;;;;;4992109;28;20425;-70
2023/08/27 01:02:23;;;;;;;3.27;2.97;;;23.90;85.00;;;;;;4955917;28;20566;-70
2023/08/27 01:04:50;;;;;;;3.00;2.73;;;23.90;85.00;;;;;;4999172;28;20448;-71
2023/08/27 01:07:30;;;;;;;3.83;3.53;;;23.80;84.90;;;;;;4986564;28;20463;-71
2023/08/27 01:10:15;;;;;;;3.10;2.83;;;23.80;84.90;;;;;;4994863;28;20605;-71
2023/08/27 01:13:01;;;;;;;3.30;3.00;;;23.80;84.90;;;;;;4966462;28;20419;-71
2023/08/27 01:15:31;;;;;;;3.60;2.77;;;23.80;84.90;;;;;;4980593;28;20452;-69
2023/08/27 01:17:59;;;;;;;3.60;3.30;;;23.80;84.90;;;;;;4985890;28;20406;-70
2023/08/27 01:20:27;;;;;;;3.33;3.00;;;23.80;84.90;;;;;;4985359;28;20780;-71
2023/08/27 01:22:53;;;;;;;4.07;2.83;;;23.80;85.00;;;;;;4985374;28;20417;-71
2023/08/27 01:25:24;;;;;;;3.20;2.90;;;23.70;84.80;;;;;;4985453;28;20583;-70
2023/08/27 01:28:11;;;;;;;3.10;2.60;;;23.70;84.90;;;;;;4969582;28;21336;-71
2023/08/27 01:30:55;;;;;;;5.20;2.80;;;23.70;84.90;;;;;;4985757;28;20448;-69
2023/08/27 01:33:26;;;;;;;3.40;2.93;;;23.70;84.80;;;;;;4986773;28;20475;-70
2023/08/27 01:35:53;;;;;;;4.40;3.17;;;23.70;84.80;;;;;;4987153;28;20448;-71
2023/08/27 01:38:20;;;;;;;2.83;2.57;;;23.70;84.90;;;;;;4970005;28;20444;-71
2023/08/27 01:40:46;;;;;;;3.27;3.07;;;23.70;84.90;;;;;;4986609;28;21078;-71
2023/08/27 01:43:12;;;;;;;5.10;2.60;;;23.70;84.90;;;;;;4986812;28;20413;-70
2023/08/27 01:45:38;;;;;;;3.87;3.20;;;23.70;85.00;;;;;;4985188;28;20448;-70
2023/08/27 01:48:04;;;;;;;3.30;3.00;;;23.70;84.90;;;;;;4985395;28;20411;-70
2023/08/27 01:50:33;;;;;;;3.03;2.83;;;23.60;84.80;;;;;;4986414;28;21016;-71
2023/08/27 01:52:59;;;;;;;2.90;2.70;;;23.60;84.80;;;;;;4985457;28;20401;-70
2023/08/27 01:55:25;;;;;;;3.30;2.83;;;23.60;84.80;;;;;;4985331;28;20469;-71
2023/08/27 01:57:52;;;;;;;7.00;3.17;;;23.60;84.80;;;;;;4985341;28;20804;-71
2023/08/27 02:00:20;;;;;;;3.40;3.10;;;23.60;84.80;;;;;;4969304;28;20433;-69
2023/08/27 02:02:48;;;;;;;3.13;2.93;;;23.60;84.90;;;;;;4985294;28;20424;-70
2023/08/27 02:05:14;;;;;;;6.23;3.30;;;23.50;84.80;;;;;;4968368;28;20460;-70
2023/08/27 02:07:41;;;;;;;3.40;3.10;;;23.50;84.80;;;;;;4968770;28;20957;-71
2023/08/27 02:10:07;;;;;;;3.23;2.90;;;23.50;84.80;;;;;;4991058;28;20452;-70
2023/08/27 02:12:35;;;;;;;2.90;2.70;;;23.50;84.80;;;;;;4971972;28;20432;-70
2023/08/27 02:15:06;;;;;;;3.23;3.03;;;23.50;84.90;;;;;;5003653;28;20440;-71
2023/08/27 02:17:33;;;;;;;2.90;2.70;;;23.50;84.90;;;;;;4987764;28;20903;-70
2023/08/27 02:19:59;;;;;;;3.50;3.20;;;23.50;84.90;;;;;;5003773;28;20579;-71
2023/08/27 02:22:27;;;;;;;3.33;2.93;;;23.50;84.90;;;;;;4988128;28;20432;-71
2023/08/27 02:24:55;;;;;;;3.10;2.90;;;23.50;84.90;;;;;;5004062;28;20451;-69
2023/08/27 02:27:21;;;;;;;4.43;3.33;;;23.50;84.80;;;;;;4987682;28;20440;-71
2023/08/27 02:29:50;;;;;;;3.33;3.07;;;23.50;84.90;;;;;;5003819;28;20482;-71
2023/08/27 02:32:16;;;;;;;3.20;2.90;;;23.40;84.80;;;;;;5003645;28;21113;-70
2023/08/27 02:34:47;;;;;;;3.00;2.67;;;23.40;84.70;;;;;;4987114;28;20518;-70
2023/08/27 02:37:13;;;;;;;4.20;3.17;;;23.40;84.80;;;;;;5004911;28;20973;-70
2023/08/27 02:39:39;;;;;;;3.30;3.00;;;23.40;84.80;;;;;;4987217;28;20431;-70
2023/08/27 02:42:07;;;;;;;4.60;2.87;;;23.40;84.90;;;;;;5003863;28;20232;-70
2023/08/27 02:44:33;;;;;;;2.90;2.70;;;23.40;84.80;;;;;;5004029;28;20962;-70
2023/08/27 02:47:01;;;;;;;3.03;2.77;;;23.40;84.90;;;;;;4987313;28;20404;-70
2023/08/27 02:49:31;;;;;;;3.07;2.63;;;23.30;84.80;;;;;;5003112;28;20495;-70
2023/08/27 02:52:02;;;;;;;3.43;3.10;;;23.30;84.80;;;;;;5003343;28;20428;-70
2023/08/27 02:54:30;;;;;;;3.40;3.10;;;23.30;84.80;;;;;;5003326;28;20831;-71
2023/08/27 02:56:56;;;;;;;3.47;3.17;;;23.30;84.90;;;;;;4986816;28;20432;-71
2023/08/27 02:59:27;;;;;;;5.10;3.27;;;23.30;84.90;;;;;;5003521;28;20427;-71
2023/08/27 03:01:54;;;;;;;2.97;2.77;;;23.30;84.90;;;;;;5003347;28;20913;-70
2023/08/27 03:04:22;;;;;;;3.83;3.10;;;23.30;84.90;;;;;;4987177;28;20497;-70
2023/08/27 03:06:48;;;;;;;2.80;2.60;;;23.20;84.80;;;;;;5003434;28;20472;-70
2023/08/27 03:09:15;;;;;;;3.70;3.50;;;23.20;84.70;;;;;;4970772;28;20467;-70
2023/08/27 03:11:46;;;;;;;3.73;3.10;;;23.20;84.80;;;;;;5004461;28;20416;-69
2023/08/27 03:14:14;;;;;;;3.30;3.00;;;23.20;84.70;;;;;;5002470;28;20436;-71
2023/08/27 03:16:47;;;;;;;3.60;3.30;;;23.20;84.80;;;;;;4986446;28;20428;-71
2023/08/27 03:19:16;;;;;;;2.87;2.67;;;23.20;84.90;;;;;;5002595;28;20515;-71
2023/08/27 03:21:41;;;;;;;3.20;2.90;;;23.20;84.90;;;;;;4986391;28;20440;-71
2023/08/27 03:24:08;;;;;;;2.97;2.73;;;23.20;84.80;;;;;;5002143;28;20654;-70
2023/08/27 03:26:36;;;;;;;4.57;3.20;;;23.20;84.90;;;;;;5003219;28;20263;-71
2023/08/27 03:29:04;;;;;;;3.37;3.07;;;23.20;84.80;;;;;;5062928;23;21109;-73
2023/08/27 03:31:34;;;;;;;3.53;2.83;;;23.10;84.70;;;;;;5015676;28;20561;-72
2023/08/27 03:34:02;;;;;;;3.10;2.77;;;23.10;84.70;;;;;;5024866;28;20883;-72
2023/08/27 03:36:28;;;;;;;3.27;2.97;;;23.10;84.90;;;;;;4989246;28;20538;-73
2023/08/27 03:38:54;;;;;;;3.23;3.03;;;23.10;85.00;;;;;;4988984;28;20469;-73
2023/08/27 03:41:23;;;;;;;5.60;3.80;;;23.10;85.00;;;;;;5004965;28;20528;-73
2023/08/27 03:43:49;;;;;;;3.63;3.00;;;23.10;85.00;;;;;;5021636;28;20311;-73
2023/08/27 03:46:15;;;;;;;2.90;2.70;;;23.10;84.90;;;;;;4989089;28;21062;-73
2023/08/27 03:48:46;;;;;;;2.97;2.73;;;23.10;84.80;;;;;;4988680;28;20439;-73
2023/08/27 03:51:14;;;;;;;3.93;2.90;;;23.10;84.80;;;;;;5005027;28;20986;-72
2023/08/27 03:53:43;;;;;;;3.07;2.77;;;23.00;84.80;;;;;;5021393;28;21122;-73
2023/08/27 03:56:11;;;;;;;3.80;3.50;;;23.00;84.80;;;;;;5021345;28;20475;-72
2023/08/27 03:58:39;;;;;;;6.47;2.83;;;23.00;85.00;;;;;;5005091;28;20438;-72
2023/08/27 04:01:07;;;;;;;5.77;3.27;;;23.00;85.00;;;;;;5014644;28;21003;-72
2023/08/27 04:03:35;;;;;;;5.53;3.77;;;23.00;85.00;;;;;;5001732;28;20412;-73
2023/08/27 04:06:05;;;;;;;3.07;2.87;;;23.00;84.90;;;;;;5001425;28;21019;-72
2023/08/27 04:08:34;;;;;;;2.97;2.77;;;22.90;84.70;;;;;;4985269;28;20470;-72
2023/08/27 04:11:01;;;;;;;3.37;2.63;;;23.00;84.90;;;;;;4984728;28;20460;-72
2023/08/27 04:13:30;;;;;;;3.87;3.07;;;22.90;84.80;;;;;;4969246;28;21382;-72
2023/08/27 04:16:02;;;;;;;3.33;3.03;;;22.90;84.70;;;;;;4969478;28;20960;-72
2023/08/27 04:18:33;;;;;;;3.37;3.00;;;22.90;84.70;;;;;;4995692;28;20428;-72
2023/08/27 04:21:01;;;;;;;3.23;3.03;;;22.90;84.80;;;;;;5022244;28;20449;-72
2023/08/27 04:23:28;;;;;;;3.17;2.97;;;22.90;84.90;;;;;;4987554;28;20451;-73
2023/08/27 04:25:54;;;;;;;2.80;2.60;;;22.90;84.90;;;;;;5004794;28;20441;-72
2023/08/27 04:28:20;;;;;;;3.40;3.10;;;22.90;84.90;;;;;;5004492;28;21039;-72
2023/08/27 04:30:50;;;;;;;4.07;2.80;;;22.80;84.80;;;;;;4988628;28;20465;-72
2023/08/27 04:33:17;;;;;;;3.10;2.90;;;22.80;84.80;;;;;;5004420;28;20999;-72
2023/08/27 04:35:52;;;;;;;3.93;3.03;;;22.80;84.80;;;;;;5006724;28;20431;-72
2023/08/27 04:38:21;;;;;;;3.63;2.70;;;22.80;84.90;;;;;;5016349;28;20430;-72
2023/08/27 04:40:51;;;;;;;3.60;2.90;;;22.80;84.90;;;;;;4988833;28;20447;-73
2023/08/27 04:43:23;;;;;;;3.40;3.10;;;22.80;84.90;;;;;;4989141;28;20447;-73
2023/08/27 04:45:52;;;;;;;3.93;2.80;;;22.80;85.00;;;;;;4988507;28;20462;-72
2023/08/27 04:48:19;;;;;;;3.30;3.10;;;22.70;84.90;;;;;;4971613;28;20445;-73
2023/08/27 04:50:51;;;;;;;3.20;2.90;;;22.80;85.00;;;;;;4983610;28;20497;-72
2023/08/27 04:53:17;;;;;;;3.13;2.87;;;22.70;84.90;;;;;;5018884;28;20474;-72
2023/08/27 04:55:43;;;;;;;4.07;2.80;;;22.80;85.10;;;;;;5019444;28;20956;-73
2023/08/27 04:58:11;;;;;;;4.07;3.07;;;22.70;85.10;;;;;;5021143;28;20408;-73
2023/08/27 05:00:43;;;;;;;4.17;2.70;;;22.70;85.00;;;;;;4992074;28;20906;-74
2023/08/27 05:03:09;;;;;;;2.93;2.73;;;22.70;85.00;;;;;;5001739;28;21027;-73
2023/08/27 05:05:35;;;;;;;3.10;2.90;;;22.70;85.10;;;;;;5004151;28;20481;-73
2023/08/27 05:08:04;;;;;;;5.03;3.43;;;22.70;85.10;;;;;;5003444;28;20431;-73
2023/08/27 05:10:31;;;;;;;3.77;2.70;;;22.70;85.10;;;;;;5006156;28;20467;-73
2023/08/27 05:13:03;;;;;;;4.10;2.80;;;22.70;85.20;;;;;;4990444;28;20462;-73
2023/08/27 05:15:31;;;;;;;4.63;2.93;;;22.70;85.20;;;;;;5006401;28;20451;-72
2023/08/27 05:17:58;;;;;;;4.20;2.83;;;22.60;85.10;;;;;;5001467;28;20423;-72
2023/08/27 05:20:24;;;;;;;3.43;2.73;;;22.60;85.20;;;;;;4994890;28;20499;-72
2023/08/27 05:22:50;;;;;;;2.93;2.73;;;22.60;85.20;;;;;;5002935;28;20492;-72
2023/08/27 05:25:17;;;;;;;3.40;3.10;;;22.60;86.10;;;;;;5056855;23;20500;-73
2023/08/27 05:27:48;;;;;;;3.17;2.97;;;22.60;85.40;;;;;;4981172;28;20508;-73
2023/08/27 05:30:16;;;;;;;3.07;2.87;;;22.60;85.40;;;;;;4984437;28;20491;-73
2023/08/27 05:32:43;;;;;;;3.40;2.80;;;22.60;85.50;;;;;;4952105;28;20926;-73
2023/08/27 05:35:12;;;;;;;4.00;2.63;;;22.60;85.60;;;;;;4963945;28;20466;-73
2023/08/27 05:37:38;;;;;;;3.23;3.03;;;22.60;85.60;;;;;;4916710;28;20510;-73
2023/08/27 05:40:06;;;;;;;3.93;3.20;;;22.60;85.70;;;;;;4964111;28;20867;-73
2023/08/27 05:42:33;;;;;;;3.77;3.10;;;22.60;85.80;;;;;;4948366;28;20423;-73
2023/08/27 05:44:59;;;;;;;3.03;2.73;;;22.50;85.70;;;;;;4948868;28;21205;-73
2023/08/27 05:47:26;;;;;;;3.33;2.93;;;22.60;85.90;;;;;;4964109;28;20421;-73
2023/08/27 05:49:55;;;;;;;2.87;2.63;;;22.50;86.00;;;;;;4948197;28;20543;-73
2023/08/27 05:52:24;;;;;;;2.90;2.70;;;22.60;87.00;;;;;;4947857;28;20952;-72
2023/08/27 05:54:54;;;;;;;3.03;2.83;;;22.50;86.10;;;;;;4932255;28;20472;-73
2023/08/27 05:57:21;;;;;;;2.80;2.60;;;22.50;86.20;;;;;;4931751;28;20461;-73
2023/08/27 05:59:47;;;;;;;3.20;2.90;;;22.50;87.10;;;;;;4980178;28;20442;-72
2023/08/27 06:02:17;;;;;;;5.20;3.00;;;22.50;86.40;;;;;;4964266;28;20867;-72
2023/08/27 06:04:43;;;;;;;3.33;3.13;;;22.50;86.50;;;;;;4948585;28;20973;-73
2023/08/27 06:07:10;;;;;;;3.30;3.00;;;22.50;86.50;;;;;;4947952;28;20462;-73
2023/08/27 06:09:39;;;;;;;2.57;2.37;;;22.50;86.60;;;;;;4931739;28;20469;-73
2023/08/27 06:12:07;;;;;;;3.57;3.10;;;22.50;86.60;;;;;;4947952;28;20406;-73
2023/08/27 06:14:36;;;;;;;3.30;3.00;;;22.50;86.70;;;;;;4948216;28;20448;-73
2023/08/27 06:17:03;;;;;;;5.93;2.90;;;22.50;86.70;;;;;;4932051;28;20401;-73
2023/08/27 06:19:31;;;;;;;3.40;2.93;;;22.40;86.60;;;;;;4932218;28;20429;-73
2023/08/27 06:21:57;;;;;;;2.50;2.30;;;22.40;86.60;;;;;;4980091;28;20449;-73
2023/08/27 06:24:26;;;;;;;5.20;3.00;;;22.50;86.80;;;;;;4932204;28;20418;-73
2023/08/27 06:26:52;;;;;;;2.60;2.40;;;22.40;86.80;;;;;;4963942;28;20441;-73
2023/08/27 06:29:20;;;;;;;2.57;2.37;;;22.40;86.70;;;;;;4932177;28;20854;-73
2023/08/27 06:31:48;;;;;;;2.93;2.73;;;22.50;86.90;;;;;;4963565;28;20410;-73
2023/08/27 06:34:16;;;;;;;4.20;2.80;;;22.40;87.50;;;;;;4962987;28;20425;-73
2023/08/27 06:36:42;;;;;;;2.50;2.30;;;22.40;86.70;;;;;;4962744;28;20561;-73
2023/08/27 06:39:10;;;;;;;2.60;2.40;;;22.40;86.70;;;;;;4947305;28;20520;-73
2023/08/27 06:41:38;;;;;;;2.90;2.70;;;22.40;86.80;;;;;;4963590;28;20458;-72
2023/08/27 06:44:10;;;;;;;2.40;2.30;;;22.40;86.80;;;;;;4947741;28;20492;-73
2023/08/27 06:46:40;;;;;;;3.37;2.80;;;22.40;86.80;;;;;;4947631;28;20414;-73
2023/08/27 06:49:11;;;;;;;3.00;2.80;;;22.40;86.90;;;;;;4962822;28;20422;-73
2023/08/27 06:51:39;;;;;;;7.67;2.87;;;22.40;87.00;;;;;;4947209;28;20450;-73
2023/08/27 06:54:05;;;;;;;2.67;2.47;;;22.40;87.00;;;;;;4946592;28;20409;-73
2023/08/27 06:56:31;;;;;;;2.90;2.60;;;22.40;87.10;;;;;;4964480;28;20469;-73
2023/08/27 06:59:01;;;;;;;2.37;2.27;;;22.30;87.00;;;;;;4961882;28;20532;-72
2023/08/27 07:01:30;;;;;;;2.50;2.30;;;22.30;87.20;;;;;;4964570;28;20465;-72
2023/08/27 07:03:58;;;;;;;3.00;2.80;;;22.30;87.20;;;;;;4946960;28;20778;-73
2023/08/27 07:06:24;;;;;;;3.30;3.00;;;22.30;87.20;;;;;;4962450;28;21158;-72
2023/08/27 07:08:50;;;;;;;2.80;2.60;;;22.30;87.30;;;;;;4952133;28;20405;-72
2023/08/27 07:11:16;;;;;;;3.50;2.33;;;22.30;87.30;;;;;;4974497;28;20489;-72
2023/08/27 07:13:45;;;;;;;3.60;2.40;;;22.30;87.30;;;;;;4952208;28;20500;-73
2023/08/27 07:16:11;;;;;;;4.60;2.43;;;22.30;87.40;;;;;;4947021;28;21159;-73
2023/08/27 07:18:38;;;;;;;2.80;2.60;;;22.30;87.40;;;;;;4947202;28;20458;-72
2023/08/27 07:21:06;;;;;;;2.67;2.47;;;22.30;87.50;;;;;;4946631;28;20521;-72
2023/08/27 07:23:32;;;;;;;3.17;2.90;;;22.30;88.30;;;;;;4930854;28;21252;-72
2023/08/27 07:25:59;;;;;;;2.60;2.40;;;22.30;87.60;;;;;;4930283;28;20858;-72
2023/08/27 07:28:27;;;;;;;2.87;2.67;;;22.30;87.60;;;;;;4946635;28;20438;-73
2023/08/27 07:30:54;;;;;;;2.50;2.40;;;22.30;87.60;;;;;;4962531;28;20492;-73
2023/08/27 07:33:20;;;;;;;2.87;2.67;;;22.30;87.60;;;;;;4962666;28;20509;-73
2023/08/27 07:35:48;;;;;;;2.40;2.30;;;22.30;87.60;;;;;;4946716;28;20462;-73
2023/08/27 07:38:15;;;;;;;2.57;2.47;;;22.30;87.60;;;;;;4948267;28;20489;-73
2023/08/27 07:40:41;;;;;;;3.10;2.90;;;22.30;87.60;;;;;;4930920;28;20642;-72
2023/08/27 07:43:08;;;;;;;3.37;3.03;;;22.30;87.60;;;;;;4930520;28;21207;-73
2023/08/27 07:45:34;;;;;;;3.57;3.17;;;22.30;87.60;;;;;;4946816;28;20808;-73
2023/08/27 07:48:00;;;;;;;2.67;2.47;;;22.30;87.70;;;;;;4964613;28;20409;-72
2023/08/27 07:50:27;;;;;;;3.03;2.83;;;22.20;87.60;;;;;;4963109;28;20555;-72
2023/08/27 07:52:53;;;;;;;2.57;2.37;;;22.30;88.50;;;;;;4947246;28;20572;-73
2023/08/27 07:55:23;;;;;;;2.73;2.40;;;22.30;87.70;;;;;;4962453;28;20450;-73
2023/08/27 07:57:51;;;;;;;2.80;2.60;;;22.30;87.80;;;;;;4959163;28;20996;-75
2023/08/27 08:00:18;;;;;;;3.07;2.43;;;22.20;87.70;;;;;;4942984;28;20439;-71
2023/08/27 08:02:47;;;;;;;3.00;2.57;;;22.30;87.80;;;;;;4927299;29;20501;-71
2023/08/27 08:05:18;;;;;;;2.97;2.77;;;22.30;87.80;;;;;;4954538;28;20508;-75
2023/08/27 08:07:44;;;;;;;3.17;2.50;;;22.30;87.80;;;;;;4946842;28;20417;-72
2023/08/27 08:10:12;;;;;;;2.03;1.93;;;22.20;87.60;;;;;;4948355;28;20469;-72
2023/08/27 08:12:38;;;;;;;3.00;2.80;;;22.30;87.60;;;;;;4966404;28;20430;-72
2023/08/27 08:15:05;;;;;;;2.70;2.50;;;22.20;87.50;;;;;;4967839;28;20469;-71
2023/08/27 08:17:38;;;;;;;3.07;2.50;;;22.20;87.50;;;;;;4950554;28;20426;-70
2023/08/27 08:20:05;;;;;;;2.83;2.63;;;22.30;87.60;;;;;;4950666;28;20441;-71
2023/08/27 08:22:31;;;;;;;2.50;2.30;;;22.20;87.40;;;;;;4966910;28;20508;-72
2023/08/27 08:24:56;;;;;;;2.73;2.40;;;22.30;88.40;;;;;;4952310;28;21019;-72
2023/08/27 08:27:24;;;;;;;2.47;2.27;;;22.20;87.50;;;;;;4948824;29;20290;-73
2023/08/27 08:29:52;;;;;;;2.87;2.67;;;22.30;87.60;;;;;;4931063;29;20216;-72
2023/08/27 08:32:19;;;;;;;2.80;2.60;;;22.30;87.60;;;;;;4948164;29;20486;-71
2023/08/27 08:34:47;;;;;;;2.60;2.20;;;22.30;87.60;;;;;;4939367;28;20449;-73
2023/08/27 08:37:13;;;;;;;2.70;2.50;;;22.20;87.40;;;;;;4951115;28;20432;-73
2023/08/27 08:39:40;;;;;;;2.83;2.63;;;22.20;87.40;;;;;;4950511;28;20529;-73
2023/08/27 08:42:29;;;;;;;2.90;2.70;;;22.30;87.50;;;;;;4949538;28;20446;-73
2023/08/27 08:45:35;;;;;;;2.77;2.57;;;22.30;87.60;;;;;;4953144;28;20461;-73
2023/08/27 08:48:06;;;;;;;2.97;2.77;;;22.30;87.50;;;;;;4922208;29;20527;-73
2023/08/27 08:50:37;;;;;;;2.83;2.53;;;22.20;87.40;;;;;;4949012;28;20500;-73
2023/08/27 08:53:14;;;;;;;2.80;2.60;;;22.30;87.40;;;;;;4944292;28;20437;-72
2023/08/27 08:55:48;;;;;;;3.07;2.77;;;22.30;87.40;;;;;;4955952;28;20565;-76
2023/08/27 08:58:16;;;;;;;2.73;2.53;;;22.30;87.40;;;;;;4950173;28;20525;-74
2023/08/27 09:00:45;;;;;;;3.07;2.33;;;22.30;87.40;;;;;;4949339;28;20982;-77
2023/08/27 09:03:11;;;;;;;3.00;2.70;;;22.30;87.20;;;;;;4949317;28;20415;-76
2023/08/27 09:05:40;;;;;;;2.97;2.77;;;22.30;87.10;;;;;;4951214;28;21299;-77
2023/08/27 09:08:10;;;;;;;2.97;2.67;;;22.30;87.10;;;;;;4934458;28;20533;-76
2023/08/27 09:10:37;;;;;;;2.50;2.30;;;22.30;87.10;;;;;;4951402;28;20544;-77
2023/08/27 09:13:05;;;;;;;2.73;2.50;;;22.30;87.00;;;;;;4921911;28;20420;-77
2023/08/27 09:15:31;;;;;;;2.40;2.30;;;22.30;87.00;;;;;;4969962;28;20974;-76
2023/08/27 09:17:59;;;;;;;2.80;2.60;;;22.30;87.00;;;;;;4967848;28;21372;-72
2023/08/27 09:20:25;;;;;;;2.30;2.20;;;22.40;87.20;;;;;;4949900;28;20438;-74
2023/08/27 09:22:52;;;;;;;2.93;2.73;;;22.30;86.90;;;;;;4948519;28;20425;-74
2023/08/27 09:25:18;;;;;;;3.30;2.60;;;22.40;87.10;;;;;;4949206;28;20479;-75
2023/08/27 09:27:49;;;;;;;3.57;3.30;;;22.30;87.00;;;;;;4949669;28;21058;-75
2023/08/27 09:30:16;;;;;;;2.67;2.57;;;22.40;87.20;;;;;;4949290;28;20458;-75
2023/08/27 09:32:49;;;;;;;2.30;2.10;;;22.40;87.00;;;;;;4965559;28;20484;-75
2023/08/27 09:35:15;;;;;;;3.10;2.80;;;22.40;87.10;;;;;;4965114;28;20457;-79
2023/08/27 09:37:43;;;;;;;2.50;2.30;;;22.40;87.00;;;;;;4951215;28;20795;-74
2023/08/27 09:40:16;;;;;;;2.90;2.70;;;22.40;86.90;;;;;;4982560;28;20592;-75
2023/08/27 09:42:46;;;;;;;2.93;2.40;;;22.40;87.00;;;;;;4967075;28;20986;-74
2023/08/27 09:45:17;;;;;;;2.40;2.20;;;22.40;87.00;;;;;;4949179;28;20555;-75
2023/08/27 09:47:46;;;;;;;4.07;2.10;;;22.40;87.00;;;;;;4932998;28;20492;-75
2023/08/27 09:50:18;;;;;;;2.57;2.37;;;22.50;87.10;;;;;;4948787;28;20472;-75
2023/08/27 09:52:44;;;;;;;5.20;2.60;;;22.50;87.10;;;;;;4966058;28;20416;-76
2023/08/27 09:55:16;;;;;;;2.43;2.23;;;22.50;87.00;;;;;;4965827;28;20441;-77
2023/08/27 09:57:53;;;;;;;2.70;2.50;;;22.50;87.00;;;;;;4951446;28;20533;-76
2023/08/27 10:00:21;;;;;;;2.80;2.60;;;22.50;87.00;;;;;;4934678;28;20430;-75
2023/08/27 10:02:50;;;;;;;4.20;2.60;;;22.60;87.00;;;;;;4966736;28;20454;-73
2023/08/27 10:05:16;;;;;;;3.03;2.53;;;22.50;86.90;;;;;;4948998;28;21117;-76
2023/08/27 10:08:05;;;;;;;2.73;2.30;;;22.60;87.00;;;;;;4966752;28;20486;-75
2023/08/27 10:10:36;;;;;;;3.03;2.80;;;22.60;86.60;;;;;;4982383;28;20452;-77
2023/08/27 10:13:04;;;;;;;3.63;2.60;;;22.60;86.30;;;;;;4949874;28;20459;-76
2023/08/27 10:15:31;;;;;;;2.47;2.27;;;22.60;86.30;;;;;;4964008;28;20585;-76
2023/08/27 10:17:59;;;;;;;2.30;2.03;;;22.60;85.90;;;;;;4948748;28;20438;-76
2023/08/27 10:20:25;;;;;;;2.50;2.30;;;22.60;85.80;;;;;;4967540;28;20469;-75
2023/08/27 10:22:55;;;;;;;2.60;2.33;;;22.60;85.70;;;;;;4966009;28;20421;-73
2023/08/27 10:25:24;;;;;;;3.33;2.80;;;22.60;85.70;;;;;;4964489;28;20465;-74
2023/08/27 10:27:53;;;;;;;3.43;2.50;;;22.60;85.50;;;;;;4964071;28;20963;-76
2023/08/27 10:30:19;;;;;;;2.37;2.17;;;22.60;85.30;;;;;;4965478;28;20456;-74
2023/08/27 10:32:46;;;;;;;2.90;2.70;;;22.70;85.30;;;;;;4965206;28;20448;-75
2023/08/27 10:35:12;;;;;;;2.63;2.43;;;22.70;85.40;;;;;;4947529;28;20512;-74
2023/08/27 10:37:43;;;;;;;2.07;1.97;;;22.70;85.50;;;;;;4932057;28;20595;-74
2023/08/27 10:40:12;;;;;;;2.50;2.30;;;22.70;86.00;;;;;;4964463;28;20493;-76
2023/08/27 10:42:41;;;;;;;2.80;2.60;;;22.70;85.20;;;;;;4948483;28;20525;-75
2023/08/27 10:45:18;;;;;;;2.63;2.40;;;22.80;84.70;;;;;;4965830;28;20477;-76
2023/08/27 10:48:07;;;;;;;3.10;2.80;;;22.70;84.50;;;;;;4964821;28;20446;-74
2023/08/27 10:50:47;;;;;;;4.03;2.50;;;22.70;84.20;;;;;;4965786;28;20520;-73
2023/08/27 10:53:19;;;;;;;2.30;2.20;;;22.70;84.40;;;;;;4947340;28;20776;-74
2023/08/27 10:55:52;;;;;;;3.90;2.93;;;22.70;84.60;;;;;;4964167;28;20536;-73
2023/08/27 10:58:24;;;;;;;2.40;2.30;;;22.70;84.60;;;;;;4947966;28;21006;-74
2023/08/27 11:01:09;;;;;;;2.83;2.63;;;22.70;84.60;;;;;;4963786;28;20560;-74
2023/08/27 11:04:01;;;;;;;3.00;2.50;;;22.80;84.40;;;;;;4979484;28;20433;-74
2023/08/27 11:06:46;;;;;;;2.60;2.30;;;22.80;84.50;;;;;;4964624;28;20847;-73
2023/08/27 11:09:25;;;;;;;3.30;2.70;;;22.80;84.40;;;;;;4931588;28;20430;-74
2023/08/27 11:11:52;;;;;;;2.97;2.50;;;22.80;84.20;;;;;;4965027;28;20418;-74
2023/08/27 11:14:21;;;;;;;2.80;2.50;;;22.80;84.20;;;;;;4963403;28;20407;-73
2023/08/27 11:17:03;;;;;;;3.33;3.03;;;22.80;84.00;;;;;;4964541;28;20485;-74
2023/08/27 11:19:35;;;;;;;2.90;2.70;;;22.90;84.30;;;;;;4964324;28;20453;-74
2023/08/27 11:22:05;;;;;;;3.20;2.90;;;22.90;84.20;;;;;;4962569;28;21102;-73
2023/08/27 11:24:31;;;;;;;3.60;3.20;;;22.90;84.10;;;;;;4945282;28;21301;-73
2023/08/27 11:27:04;;;;;;;4.53;2.43;;;22.90;84.30;;;;;;4965384;28;20604;-73
2023/08/27 11:29:33;;;;;;;3.07;2.80;;;22.90;84.10;;;;;;4931837;28;20881;-73
2023/08/27 11:32:03;;;;;;;2.90;2.70;;;22.90;83.90;;;;;;4946319;28;20784;-73
2023/08/27 11:34:40;;;;;;;2.83;2.63;;;23.00;84.10;;;;;;4977899;28;20521;-73
2023/08/27 11:37:41;;;;;;;5.57;2.87;;;23.00;83.70;;;;;;4946688;28;20521;-73
2023/08/27 11:40:15;;;;;;;3.03;2.83;;;23.00;83.40;;;;;;4972249;28;21242;-71
2023/08/27 11:42:50;;;;;;;2.90;2.70;;;23.00;82.60;;;;;;4982090;28;20478;-72
2023/08/27 11:45:31;;;;;;;4.30;3.00;;;23.10;82.70;;;;;;4956455;28;20473;-72
2023/08/27 11:48:08;;;;;;;3.47;3.00;;;23.10;82.80;;;;;;4977760;28;20601;-72
2023/08/27 11:50:38;;;;;;;3.10;2.90;;;23.10;82.80;;;;;;4977549;28;20965;-72
2023/08/27 11:53:07;;;;;;;3.30;3.00;;;23.10;82.70;;;;;;4961374;28;20515;-72
2023/08/27 11:55:35;;;;;;;3.57;3.27;;;23.20;82.80;;;;;;4970642;28;20457;-72
2023/08/27 11:58:06;;;;;;;3.47;2.80;;;23.20;82.70;;;;;;4971741;28;20587;-72
2023/08/27 12:00:32;;;;;;;2.80;2.60;;;23.20;82.60;;;;;;4945510;28;20532;-71
2023/08/27 12:03:01;;;;;;;3.07;2.87;;;23.20;83.40;;;;;;4963559;28;21127;-71
2023/08/27 12:05:30;;;;;;;3.97;3.10;;;23.30;82.70;;;;;;4977797;28;20557;-71
2023/08/27 12:07:56;;;;;;;3.60;2.30;;;23.30;82.60;;;;;;4961804;28;21410;-71
2023/08/27 12:10:23;;;;;;;4.13;3.17;;;23.30;82.30;;;;;;4978699;28;20458;-73
2023/08/27 12:12:49;;;;;;;3.07;2.87;;;23.30;82.20;;;;;;4997316;28;20213;-71
2023/08/27 12:15:15;;;;;;;2.97;2.77;;;23.40;82.20;;;;;;4987155;28;20509;-71
2023/08/27 12:17:41;;;;;;;3.23;2.93;;;23.40;81.90;;;;;;4947001;28;20456;-71
2023/08/27 12:20:07;;;;;;;2.57;2.37;;;23.40;81.30;;;;;;4975041;28;20445;-71
2023/08/27 12:22:44;;;;;;;3.00;2.77;;;23.40;80.90;;;;;;4965208;28;20432;-71
2023/08/27 12:25:13;;;;;;;2.93;2.67;;;23.40;80.90;;;;;;4968701;28;20545;-72
2023/08/27 12:27:44;;;;;;;2.43;2.33;;;23.50;80.90;;;;;;4955795;28;20961;-71
2023/08/27 12:30:10;;;;;;;2.47;2.23;;;23.50;80.90;;;;;;4960086;28;20481;-71
2023/08/27 12:32:38;;;;;;;3.03;2.53;;;23.50;80.70;;;;;;4960081;28;20501;-71
2023/08/27 12:35:06;;;;;;;2.67;2.47;;;23.50;80.60;;;;;;4970322;28;20444;-71
2023/08/27 12:37:34;;;;;;;2.90;2.63;;;23.50;80.20;;;;;;4994641;28;20453;-72
2023/08/27 12:40:00;;;;;;;3.13;2.80;;;23.50;80.00;;;;;;4961683;28;20968;-73
2023/08/27 12:42:31;;;;;;;4.77;2.80;;;23.60;79.80;;;;;;4945722;28;20418;-74
2023/08/27 12:44:57;;;;;;;2.50;2.30;;;23.60;79.50;;;;;;4961895;28;20470;-74
2023/08/27 12:47:28;;;;;;;2.60;2.40;;;23.60;79.80;;;;;;4977615;28;20785;-72
2023/08/27 12:49:53;;;;;;;3.00;2.80;;;23.60;79.50;;;;;;4962273;28;20480;-73
2023/08/27 12:52:19;;;;;;;2.80;2.60;;;23.60;79.30;;;;;;4945202;28;20406;-73
2023/08/27 12:54:45;;;;;;;3.57;2.80;;;23.70;79.60;;;;;;4962058;28;20530;-73
2023/08/27 12:57:12;;;;;;;2.80;2.60;;;23.70;78.40;;;;;;4981341;28;20550;-73